createdAt,value
2022-09-12T00:02:05.216Z,9.30
2022-09-12T00:04:34.306Z,9.30
2022-09-12T00:07:02.729Z,9.30
2022-09-12T00:09:31.217Z,9.20
2022-09-12T00:11:59.902Z,9.00
2022-09-12T00:14:31.384Z,9.30
2022-09-12T00:17:01.094Z,9.10
2022-09-12T00:19:30.077Z,9.00
2022-09-12T00:21:58.961Z,8.90
2022-09-12T00:24:27.081Z,9.00
2022-09-12T00:27:08.778Z,9.00
2022-09-12T00:29:43.321Z,9.10
2022-09-12T00:32:13.727Z,8.90
2022-09-12T00:34:43.523Z,8.90
2022-09-12T00:37:19.806Z,8.90
2022-09-12T00:39:52.910Z,8.80
2022-09-12T00:42:23.447Z,8.80
2022-09-12T00:44:53.664Z,8.90
2022-09-12T00:47:37.698Z,8.80
2022-09-12T00:50:19.103Z,8.90
2022-09-12T00:53:09.382Z,8.80
2022-09-12T00:55:47.938Z,8.90
2022-09-12T00:58:27.010Z,8.90
2022-09-12T01:00:59.058Z,8.90
2022-09-12T01:03:30.831Z,8.80
2022-09-12T01:06:20.250Z,8.90
2022-09-12T01:09:03.606Z,8.70
2022-09-12T01:11:34.588Z,8.60
2022-09-12T01:14:07.786Z,8.70
2022-09-12T01:16:42.838Z,8.60
2022-09-12T01:19:28.320Z,8.60
2022-09-12T01:22:16.328Z,8.60
2022-09-12T01:25:03.886Z,8.70
2022-09-12T01:27:58.757Z,8.60
2022-09-12T01:30:45.976Z,8.50
2022-09-12T01:33:24.271Z,8.60
2022-09-12T01:36:35.894Z,8.50
2022-09-12T01:39:11.022Z,8.40
2022-09-12T01:41:58.555Z,8.50
2022-09-12T01:44:55.472Z,8.50
2022-09-12T01:47:49.182Z,8.50
2022-09-12T01:50:26.020Z,8.40
2022-09-12T01:53:08.636Z,8.30
2022-09-12T01:55:58.432Z,8.30
2022-09-12T01:58:37.237Z,8.20
2022-09-12T02:01:22.526Z,8.30
2022-09-12T02:04:25.393Z,8.30
2022-09-12T02:07:03.123Z,8.30
2022-09-12T02:09:50.969Z,8.30
2022-09-12T02:12:26.876Z,8.30
2022-09-12T02:15:01.884Z,8.40
2022-09-12T02:17:32.961Z,8.30
2022-09-12T02:20:05.856Z,8.20
2022-09-12T02:22:38.026Z,8.20
2022-09-12T02:25:12.038Z,8.10
2022-09-12T02:28:05.906Z,8.00
2022-09-12T02:30:44.851Z,8.00
2022-09-12T02:37:03.030Z,8.00
2022-09-12T02:39:51.893Z,7.90
2022-09-12T02:42:26.778Z,8.10
2022-09-12T02:45:04.266Z,8.00
2022-09-12T02:47:50.820Z,8.00
2022-09-12T02:50:21.601Z,8.00
2022-09-12T02:52:58.317Z,8.00
2022-09-12T02:55:33.425Z,7.90
2022-09-12T02:58:09.273Z,7.90
2022-09-12T03:01:13.489Z,8.00
2022-09-12T03:03:50.704Z,7.90
2022-09-12T03:06:49.593Z,7.80
2022-09-12T03:10:05.426Z,7.80
2022-09-12T03:13:02.009Z,7.80
2022-09-12T03:19:24.199Z,7.80
2022-09-12T03:22:29.972Z,7.90
2022-09-12T03:25:29.906Z,7.80
2022-09-12T03:28:08.325Z,7.80
2022-09-12T03:31:02.463Z,7.70
2022-09-12T03:33:33.439Z,7.80
2022-09-12T03:36:03.319Z,7.70
2022-09-12T03:38:48.909Z,7.70
2022-09-12T03:41:22.019Z,7.60
2022-09-12T03:44:02.355Z,7.70
2022-09-12T03:46:48.579Z,7.60
2022-09-12T03:49:27.681Z,7.60
2022-09-12T03:52:05.213Z,7.60
2022-09-12T03:54:34.680Z,7.50
2022-09-12T04:06:04.619Z,7.40
2022-09-12T04:08:40.166Z,7.50
2022-09-12T04:17:11.619Z,7.40
2022-09-12T04:22:38.595Z,7.50
2022-09-12T04:25:11.285Z,7.50
2022-09-12T04:27:55.432Z,7.50
2022-09-12T04:30:30.996Z,7.50
2022-09-12T04:33:08.308Z,7.40
2022-09-12T04:36:01.503Z,7.40
2022-09-12T04:38:34.204Z,7.50
2022-09-12T04:41:26.502Z,7.40
2022-09-12T04:44:01.054Z,7.40
2022-09-12T04:46:39.448Z,7.40
2022-09-12T04:49:13.795Z,7.40
2022-09-12T04:51:46.279Z,7.40
2022-09-12T04:54:17.456Z,7.30
2022-09-12T04:56:48.233Z,7.50
2022-09-12T04:59:16.660Z,7.30
2022-09-12T05:01:45.085Z,7.20
2022-09-12T05:04:16.176Z,7.20
2022-09-12T05:06:48.048Z,7.30
2022-09-12T05:09:17.085Z,7.30
2022-09-12T05:14:36.786Z,7.40
2022-09-12T05:17:06.480Z,7.30
2022-09-12T05:19:38.315Z,7.30
2022-09-12T05:22:08.237Z,7.40
2022-09-12T05:24:41.449Z,7.30
2022-09-12T05:27:15.154Z,7.20
2022-09-12T05:29:46.695Z,7.30
2022-09-12T05:32:18.341Z,7.20
2022-09-12T05:34:48.793Z,7.30
2022-09-12T05:37:15.555Z,7.50
2022-09-12T05:39:42.184Z,7.60
2022-09-12T05:42:09.107Z,7.70
2022-09-12T05:44:35.704Z,7.60
2022-09-12T05:47:02.316Z,7.50
2022-09-12T05:49:28.888Z,7.60
2022-09-12T05:51:55.488Z,7.50
2022-09-12T05:54:22.761Z,7.50
2022-09-12T05:56:51.066Z,7.60
2022-09-12T05:59:20.340Z,7.70
2022-09-12T06:01:48.092Z,7.90
2022-09-12T06:04:15.879Z,7.90
2022-09-12T06:06:45.463Z,7.80
2022-09-12T06:09:14.492Z,7.90
2022-09-12T06:11:42.214Z,7.90
2022-09-12T06:14:10.941Z,8.00
2022-09-12T06:16:39.013Z,7.90
2022-09-12T06:19:13.605Z,8.00
2022-09-12T06:21:40.319Z,8.00
2022-09-12T06:24:07.600Z,8.10
2022-09-12T06:26:34.267Z,8.20
2022-09-12T06:29:00.957Z,8.30
2022-09-12T06:31:34.994Z,8.30
2022-09-12T06:34:03.663Z,8.30
2022-09-12T06:36:35.316Z,8.40
2022-09-12T06:39:10.996Z,8.50
2022-09-12T06:41:40.479Z,8.60
2022-09-12T06:44:12.606Z,8.70
2022-09-12T06:46:39.216Z,8.70
2022-09-12T06:49:06.417Z,8.80
2022-09-12T06:51:33.072Z,8.90
2022-09-12T06:53:59.782Z,9.00
2022-09-12T06:56:27.533Z,9.10
2022-09-12T06:58:55.835Z,9.20
2022-09-12T07:01:28.445Z,9.40
2022-09-12T07:03:56.690Z,9.60
2022-09-12T07:06:24.743Z,9.80
2022-09-12T07:08:51.395Z,10.00
2022-09-12T07:11:22.701Z,10.20
2022-09-12T07:13:53.744Z,10.50
2022-09-12T07:16:20.426Z,10.50
2022-09-12T07:18:54.767Z,10.50
2022-09-12T07:21:21.418Z,10.70
2022-09-12T07:23:48.490Z,10.80
2022-09-12T07:26:15.742Z,10.80
2022-09-12T07:28:42.613Z,10.90
2022-09-12T07:31:11.032Z,11.10
2022-09-12T07:33:38.303Z,11.10
2022-09-12T07:36:06.421Z,11.40
2022-09-12T07:38:33.080Z,11.50
2022-09-12T07:40:59.728Z,11.50
2022-09-12T07:43:26.329Z,11.50
2022-09-12T07:45:58.950Z,11.60
2022-09-12T07:48:25.624Z,11.70
2022-09-12T07:51:02.209Z,11.80
2022-09-12T07:53:32.504Z,11.80
2022-09-12T07:55:59.146Z,12.00
2022-09-12T07:58:26.007Z,12.30
2022-09-12T08:00:52.662Z,12.30
2022-09-12T08:03:19.587Z,12.40
2022-09-12T08:05:46.195Z,12.40
2022-09-12T08:08:12.812Z,12.50
2022-09-12T08:10:39.461Z,12.60
